createdAt,value
2019-05-15T00:00:15.744Z,79.66
2019-05-15T00:01:15.721Z,80.91
2019-05-15T00:02:15.747Z,82.06
2019-05-15T00:03:15.704Z,81.85
2019-05-15T00:04:15.685Z,81.96
2019-05-15T00:05:15.676Z,81.75
2019-05-15T00:06:15.668Z,80.71
2019-05-15T00:07:18.197Z,79.56
2019-05-15T00:08:18.231Z,79.14
2019-05-15T00:09:15.650Z,80.60
2019-05-15T00:10:17.933Z,80.02
2019-05-15T00:11:15.613Z,79.35
2019-05-15T00:12:15.599Z,80.54
2019-05-15T00:13:15.617Z,80.95
2019-05-15T00:14:18.074Z,81.16
2019-05-15T00:15:15.567Z,81.58
2019-05-15T00:16:17.974Z,80.33
2019-05-15T00:17:15.541Z,80.64
2019-05-15T00:18:15.537Z,80.85
2019-05-15T00:19:15.565Z,79.60
2019-05-15T00:20:15.519Z,80.64
2019-05-15T00:21:17.840Z,80.54
2019-05-15T00:22:15.493Z,80.33
2019-05-15T00:23:15.480Z,80.68
2019-05-15T00:24:17.787Z,80.88
2019-05-15T00:25:15.511Z,80.16
2019-05-15T00:26:29.889Z,79.74
2019-05-15T00:27:15.433Z,80.88
2019-05-15T00:28:15.424Z,82.24
2019-05-15T00:29:17.408Z,82.24
2019-05-15T00:30:15.431Z,82.76
2019-05-15T00:31:15.499Z,82.97
2019-05-15T00:32:15.980Z,82.34
2019-05-15T00:33:15.386Z,82.31
2019-05-15T00:34:15.353Z,82.72
2019-05-15T00:35:15.350Z,82.45
2019-05-15T00:36:15.345Z,82.34
2019-05-15T00:37:15.326Z,82.03
2019-05-15T00:38:15.327Z,81.99
2019-05-15T00:39:15.298Z,81.62
2019-05-15T00:40:15.288Z,80.78
2019-05-15T00:41:15.313Z,81.09
2019-05-15T00:42:15.266Z,81.93
2019-05-15T00:43:15.260Z,82.03
2019-05-15T00:44:15.258Z,82.03
2019-05-15T00:45:15.232Z,82.07
2019-05-15T00:46:15.233Z,81.76
2019-05-15T00:47:15.251Z,81.72
2019-05-15T00:48:15.205Z,82.87
2019-05-15T00:49:15.192Z,82.80
2019-05-15T00:50:15.188Z,82.45
2019-05-15T00:51:15.169Z,82.34
2019-05-15T00:52:15.235Z,82.24
2019-05-15T00:53:15.233Z,83.18
2019-05-15T00:54:15.146Z,82.59
2019-05-15T00:55:15.122Z,82.28
2019-05-15T00:56:15.111Z,82.17
2019-05-15T00:57:28.405Z,82.38
2019-05-15T00:58:15.107Z,83.01
2019-05-15T00:59:24.167Z,82.48
2019-05-15T01:00:16.073Z,83.11
2019-05-15T01:01:15.073Z,82.38
2019-05-15T01:02:15.043Z,82.34
2019-05-15T01:03:15.037Z,82.59
2019-05-15T01:04:15.075Z,82.80
2019-05-15T01:05:15.017Z,83.42
2019-05-15T01:06:15.017Z,83.32
2019-05-15T01:07:14.990Z,83.63
2019-05-15T01:08:14.978Z,83.53
2019-05-15T01:09:14.975Z,82.48
2019-05-15T01:10:14.992Z,83.53
2019-05-15T01:11:14.950Z,83.11
2019-05-15T01:12:14.940Z,83.84
2019-05-15T01:13:14.925Z,83.32
2019-05-15T01:14:14.918Z,83.22
2019-05-15T01:15:14.987Z,83.42
2019-05-15T01:16:14.937Z,84.36
2019-05-15T01:17:15.506Z,84.16
2019-05-15T01:18:14.876Z,84.26
2019-05-15T01:19:15.127Z,83.74
2019-05-15T01:20:14.859Z,83.32
2019-05-15T01:21:14.850Z,82.38
2019-05-15T01:22:14.829Z,81.13
2019-05-15T01:23:14.819Z,81.34
2019-05-15T01:24:14.801Z,81.55
2019-05-15T01:25:14.830Z,82.38
2019-05-15T01:26:14.787Z,83.01
2019-05-15T01:27:14.779Z,83.22
2019-05-15T01:28:28.970Z,82.48
2019-05-15T01:29:14.754Z,82.70
2019-05-15T01:30:14.735Z,82.28
2019-05-15T01:31:14.743Z,83.01
2019-05-15T01:32:14.725Z,82.90
2019-05-15T01:33:14.718Z,82.28
2019-05-15T01:34:14.697Z,80.75
2019-05-15T01:35:14.700Z,80.82
2019-05-15T01:36:14.673Z,81.02
2019-05-15T01:37:14.769Z,81.02
2019-05-15T01:38:14.652Z,82.28
2019-05-15T01:39:14.635Z,83.22
2019-05-15T01:40:14.624Z,83.36
2019-05-15T01:41:14.638Z,82.59
2019-05-15T01:42:14.641Z,82.28
2019-05-15T01:43:14.593Z,82.70
2019-05-15T01:44:14.582Z,82.80
2019-05-15T01:45:14.576Z,83.53
2019-05-15T01:46:14.565Z,83.95
2019-05-15T01:47:14.558Z,83.42
2019-05-15T01:48:14.554Z,82.70
2019-05-15T01:49:14.529Z,83.53
2019-05-15T01:50:14.517Z,84.57
2019-05-15T01:51:14.503Z,83.63
2019-05-15T01:52:14.499Z,83.07
2019-05-15T01:53:14.503Z,83.63
2019-05-15T01:54:14.474Z,84.05
2019-05-15T01:55:14.464Z,84.16
2019-05-15T01:56:14.454Z,84.47
2019-05-15T01:57:14.440Z,84.67
2019-05-15T01:58:14.463Z,84.36
2019-05-15T01:59:28.412Z,84.88
2019-05-15T02:00:14.408Z,84.67
2019-05-15T02:01:14.405Z,84.16
2019-05-15T02:02:14.413Z,83.32
2019-05-15T02:03:14.382Z,82.38
2019-05-15T02:04:14.434Z,81.93
2019-05-15T02:05:14.368Z,82.65
2019-05-15T02:06:14.338Z,82.45
2019-05-15T02:07:14.336Z,82.55
2019-05-15T02:08:14.365Z,83.95
2019-05-15T02:09:14.328Z,83.39
2019-05-15T02:10:14.335Z,83.49
2019-05-15T02:11:14.280Z,84.33
2019-05-15T02:12:14.286Z,84.43
2019-05-15T02:13:14.263Z,84.01
2019-05-15T02:14:14.249Z,84.64
2019-05-15T02:15:14.238Z,84.53
2019-05-15T02:16:14.232Z,84.08
2019-05-15T02:17:14.223Z,83.97
2019-05-15T02:18:14.205Z,83.76
2019-05-15T02:19:14.203Z,83.45
2019-05-15T02:20:14.222Z,82.93
2019-05-15T02:21:14.177Z,83.04
2019-05-15T02:22:14.160Z,82.82
2019-05-15T02:23:14.160Z,83.10
2019-05-15T02:24:14.139Z,82.89
2019-05-15T02:25:14.126Z,83.00
2019-05-15T02:26:14.122Z,82.48
2019-05-15T02:27:14.110Z,82.34
2019-05-15T02:28:14.093Z,81.81
2019-05-15T02:29:18.965Z,81.92
2019-05-15T02:31:30.243Z,81.67
2019-05-15T02:32:30.145Z,80.84
2019-05-15T02:33:30.147Z,81.36
2019-05-15T02:34:30.046Z,80.49
2019-05-15T02:35:29.719Z,80.18
2019-05-15T02:36:29.522Z,80.25
2019-05-15T02:37:29.622Z,79.17
2019-05-15T02:38:29.801Z,77.54
2019-05-15T02:39:29.272Z,74.74
2019-05-15T02:40:29.581Z,72.53
2019-05-15T02:41:29.813Z,68.78
2019-05-15T02:42:29.303Z,65.08
2019-05-15T02:43:29.766Z,64.43
2019-05-15T02:44:29.358Z,61.63
2019-05-15T02:45:30.068Z,59.86
2019-05-15T02:46:30.075Z,58.91
2019-05-15T02:47:29.250Z,58.03
2019-05-15T02:48:29.172Z,56.92
2019-05-15T02:49:30.245Z,54.13
2019-05-15T02:50:29.322Z,54.44
2019-05-15T02:51:30.100Z,53.77
2019-05-15T02:52:29.507Z,53.87
2019-05-15T02:53:29.898Z,52.90
2019-05-15T02:54:29.961Z,52.29
2019-05-15T02:55:29.728Z,53.49
2019-05-15T02:56:29.476Z,51.34
2019-05-15T02:57:30.109Z,51.86
2019-05-15T02:58:29.358Z,51.32
2019-05-15T02:59:29.227Z,52.06
2019-05-15T03:00:42.484Z,50.40
2019-05-15T03:02:42.942Z,48.85
2019-05-15T03:03:50.402Z,45.54
2019-05-15T03:04:42.915Z,45.42
2019-05-15T03:05:42.914Z,44.67
2019-05-15T03:06:42.905Z,42.00
2019-05-15T03:07:42.878Z,43.41
2019-05-15T03:08:42.872Z,42.19
2019-05-15T03:09:42.862Z,41.15
2019-05-15T03:10:42.842Z,41.54
2019-05-15T03:11:42.994Z,39.78
2019-05-15T03:12:42.889Z,39.73
2019-05-15T03:13:43.695Z,38.95
2019-05-15T03:14:42.799Z,38.86
2019-05-15T03:15:42.795Z,39.89
2019-05-15T03:16:42.782Z,40.83
2019-05-15T03:17:42.775Z,40.50
2019-05-15T03:18:42.756Z,40.42
2019-05-15T03:19:42.742Z,38.88
2019-05-15T03:20:42.737Z,39.59
2019-05-15T03:21:42.755Z,40.81
2019-05-15T03:22:42.715Z,40.62
2019-05-15T03:23:42.702Z,39.51
2019-05-15T03:24:42.691Z,40.72
2019-05-15T03:25:42.680Z,40.22
2019-05-15T03:26:42.673Z,40.70
2019-05-15T03:27:42.682Z,40.40
2019-05-15T03:28:42.646Z,40.40
2019-05-15T03:29:42.631Z,40.59
2019-05-15T03:31:13.473Z,39.86
2019-05-15T03:32:01.231Z,38.03
2019-05-15T03:32:53.884Z,39.15
2019-05-15T03:33:46.479Z,40.91
2019-05-15T03:34:56.529Z,40.52
2019-05-15T03:35:44.594Z,41.54
2019-05-15T03:36:45.195Z,41.03
2019-05-15T03:37:42.545Z,41.74
2019-05-15T03:38:42.553Z,39.57
2019-05-15T03:39:46.709Z,40.67
2019-05-15T03:40:43.518Z,39.98
2019-05-15T03:41:42.500Z,40.40
2019-05-15T03:42:42.487Z,40.20
2019-05-15T03:43:42.517Z,40.61
2019-05-15T03:44:42.483Z,40.91
2019-05-15T03:45:42.480Z,40.20
2019-05-15T03:46:42.470Z,40.04
2019-05-15T03:47:42.437Z,38.70
2019-05-15T03:48:42.439Z,38.68
2019-05-15T03:49:42.429Z,37.86
2019-05-15T03:50:42.405Z,36.99
2019-05-15T03:51:45.763Z,36.35
2019-05-15T03:52:42.389Z,35.33
2019-05-15T03:53:42.377Z,35.33
2019-05-15T03:54:42.362Z,35.93
2019-05-15T03:55:42.395Z,34.39
2019-05-15T03:56:42.335Z,34.97
2019-05-15T03:57:42.331Z,34.32
2019-05-15T03:58:42.327Z,36.49
2019-05-15T03:59:42.304Z,36.91
2019-05-15T04:00:42.292Z,36.59
2019-05-15T04:01:43.759Z,36.07
2019-05-15T04:02:42.279Z,36.57
2019-05-15T04:03:42.257Z,35.95
2019-05-15T04:04:42.282Z,34.91
2019-05-15T04:05:52.475Z,35.60
2019-05-15T04:06:50.290Z,34.37
2019-05-15T04:07:42.823Z,34.49
2019-05-15T04:08:42.205Z,35.31
2019-05-15T04:09:42.198Z,36.24
2019-05-15T04:10:42.189Z,36.22
2019-05-15T04:11:42.178Z,34.96
2019-05-15T04:12:42.156Z,33.94
2019-05-15T04:13:42.157Z,33.62
2019-05-15T04:14:42.141Z,33.42
2019-05-15T04:15:42.127Z,34.47
2019-05-15T04:16:42.129Z,34.96
2019-05-15T04:17:42.113Z,34.96
2019-05-15T04:18:42.104Z,34.74
2019-05-15T04:19:42.144Z,33.20
2019-05-15T04:20:42.079Z,32.46
2019-05-15T04:21:45.002Z,33.00
2019-05-15T04:22:42.067Z,33.42
2019-05-15T04:23:42.053Z,33.20
2019-05-15T04:24:42.041Z,33.13
2019-05-15T04:25:42.018Z,33.23
2019-05-15T04:26:42.010Z,33.87
2019-05-15T04:27:42.010Z,34.39
2019-05-15T04:28:42.346Z,34.79
2019-05-15T04:29:41.981Z,33.82
2019-05-15T04:30:41.963Z,33.50
2019-05-15T04:31:58.978Z,32.79
2019-05-15T04:32:42.944Z,33.08
2019-05-15T04:33:41.935Z,31.13
2019-05-15T04:34:41.969Z,31.51
2019-05-15T04:35:41.906Z,30.98
2019-05-15T04:36:44.494Z,30.88
2019-05-15T04:37:55.417Z,30.36
2019-05-15T04:38:41.878Z,30.07
2019-05-15T04:39:41.864Z,31.95
2019-05-15T04:40:41.863Z,31.14
2019-05-15T04:41:41.857Z,30.83
2019-05-15T04:42:41.899Z,31.74
2019-05-15T04:43:45.156Z,32.17
2019-05-15T04:44:42.327Z,32.38
2019-05-15T04:45:41.849Z,31.85
2019-05-15T04:46:41.828Z,31.41
2019-05-15T04:47:41.787Z,31.21
2019-05-15T04:48:41.770Z,29.99
2019-05-15T04:49:41.789Z,31.21
2019-05-15T04:50:41.908Z,31.12
2019-05-15T04:51:41.881Z,31.12
2019-05-15T04:52:43.312Z,30.51
2019-05-15T04:53:41.735Z,30.27
2019-05-15T04:54:41.709Z,29.55
2019-05-15T04:55:41.692Z,30.22
2019-05-15T04:56:41.708Z,31.27
2019-05-15T04:57:41.783Z,31.17
2019-05-15T04:58:41.684Z,31.89
2019-05-15T04:59:41.655Z,31.77
2019-05-15T05:00:41.657Z,32.93
2019-05-15T05:01:41.638Z,32.18
2019-05-15T05:02:41.662Z,32.81
2019-05-15T05:03:45.882Z,32.59
2019-05-15T05:04:41.600Z,32.51
2019-05-15T05:05:41.668Z,31.92
2019-05-15T05:06:41.674Z,32.41
2019-05-15T05:07:41.852Z,31.96
2019-05-15T05:08:54.886Z,31.24
2019-05-15T05:09:41.545Z,30.32
2019-05-15T05:10:41.539Z,31.37
2019-05-15T05:11:41.532Z,31.96
2019-05-15T05:12:42.680Z,30.52
2019-05-15T05:13:41.504Z,31.04
2019-05-15T05:14:41.519Z,31.36
2019-05-15T05:15:41.475Z,30.88
2019-05-15T05:16:41.463Z,31.98
2019-05-15T05:17:41.458Z,31.37
2019-05-15T05:18:41.863Z,31.81
2019-05-15T05:19:41.449Z,31.26
2019-05-15T05:20:41.437Z,31.56
2019-05-15T05:21:41.423Z,31.01
2019-05-15T05:22:41.407Z,31.27
2019-05-15T05:23:41.407Z,32.31
2019-05-15T05:24:41.396Z,31.89
2019-05-15T05:25:41.369Z,32.64
2019-05-15T05:26:41.363Z,31.91
2019-05-15T05:27:41.342Z,32.95
2019-05-15T05:28:41.439Z,32.78
2019-05-15T05:29:42.400Z,32.76
2019-05-15T05:30:41.834Z,32.44
2019-05-15T05:31:41.330Z,31.76
2019-05-15T05:32:41.291Z,31.56
2019-05-15T05:33:41.281Z,31.27
2019-05-15T05:34:41.267Z,30.71
2019-05-15T05:35:41.263Z,31.91
2019-05-15T05:36:41.366Z,31.82
2019-05-15T05:37:41.304Z,30.94
2019-05-15T05:38:41.532Z,30.32
2019-05-15T05:39:52.916Z,30.32
2019-05-15T05:40:41.217Z,29.95
2019-05-15T05:41:41.350Z,30.43
2019-05-15T05:42:41.184Z,30.31
2019-05-15T05:43:41.170Z,30.21
2019-05-15T05:44:42.759Z,29.98
2019-05-15T05:45:41.193Z,30.08
2019-05-15T05:46:41.131Z,30.08
2019-05-15T05:47:41.125Z,31.27
2019-05-15T05:48:41.108Z,31.04
2019-05-15T05:49:41.104Z,31.07
2019-05-15T05:50:44.151Z,31.16
2019-05-15T05:51:41.095Z,31.16
2019-05-15T05:52:41.068Z,30.21
2019-05-15T05:53:41.060Z,30.18
2019-05-15T05:54:41.399Z,29.55
2019-05-15T05:55:41.066Z,29.41
2019-05-15T05:56:41.862Z,30.21
2019-05-15T05:57:41.150Z,30.02
2019-05-15T05:58:42.211Z,31.17
2019-05-15T05:59:42.083Z,31.30
2019-05-15T06:00:41.266Z,31.40
2019-05-15T06:01:44.202Z,31.05
2019-05-15T06:02:48.096Z,30.14
2019-05-15T06:03:41.966Z,30.11
2019-05-15T06:04:41.093Z,29.27
2019-05-15T06:05:40.980Z,28.65
2019-05-15T06:06:41.037Z,28.85
2019-05-15T06:07:40.906Z,30.51
2019-05-15T06:08:40.930Z,32.39
2019-05-15T06:09:40.884Z,32.59
2019-05-15T06:10:53.333Z,32.24
2019-05-15T06:11:40.879Z,33.90
2019-05-15T06:12:40.882Z,35.06
2019-05-15T06:13:40.889Z,35.82
2019-05-15T06:14:40.846Z,36.54
2019-05-15T06:15:41.126Z,37.25
2019-05-15T06:16:40.805Z,37.57
2019-05-15T06:17:40.797Z,37.67
2019-05-15T06:18:40.796Z,37.24
2019-05-15T06:19:40.843Z,38.79
2019-05-15T06:20:40.778Z,39.22
2019-05-15T06:21:53.756Z,39.85
2019-05-15T06:22:41.777Z,39.64
2019-05-15T06:23:45.435Z,39.70
2019-05-15T06:24:41.731Z,39.99
2019-05-15T06:25:41.225Z,40.17
2019-05-15T06:26:40.703Z,37.93
2019-05-15T06:27:40.689Z,39.56
2019-05-15T06:28:40.702Z,40.16
2019-05-15T06:29:40.681Z,39.44
2019-05-15T06:30:40.693Z,39.34
2019-05-15T06:31:40.666Z,39.06
2019-05-15T06:32:40.776Z,39.26
2019-05-15T06:33:40.616Z,38.75
2019-05-15T06:34:40.633Z,38.75
2019-05-15T06:35:40.602Z,38.46
2019-05-15T06:36:40.592Z,40.01
2019-05-15T06:37:40.569Z,40.09
2019-05-15T06:38:40.719Z,39.87
2019-05-15T06:39:40.556Z,38.56
2019-05-15T06:40:40.540Z,38.99
2019-05-15T06:41:53.451Z,40.31
2019-05-15T06:42:40.583Z,41.27
2019-05-15T06:43:40.540Z,40.53
2019-05-15T06:44:40.671Z,41.35
2019-05-15T06:45:40.493Z,40.21
2019-05-15T06:46:40.479Z,39.66
2019-05-15T06:47:40.502Z,40.03
2019-05-15T06:48:40.448Z,38.79
2019-05-15T06:49:40.450Z,38.83
2019-05-15T06:50:40.739Z,39.85
2019-05-15T06:51:40.416Z,40.16
2019-05-15T06:52:40.404Z,38.41
2019-05-15T06:53:40.438Z,38.83
2019-05-15T06:54:40.480Z,38.83
2019-05-15T06:55:40.422Z,37.08
2019-05-15T06:56:40.367Z,36.68
2019-05-15T06:57:40.367Z,35.46
2019-05-15T06:58:40.378Z,35.77
2019-05-15T06:59:40.381Z,36.87
2019-05-15T07:00:40.415Z,35.53
2019-05-15T07:01:40.364Z,36.14
2019-05-15T07:02:40.305Z,37.19
2019-05-15T07:03:40.285Z,37.71
2019-05-15T07:04:40.289Z,37.02
2019-05-15T07:05:40.467Z,37.26
2019-05-15T07:06:40.274Z,37.65
2019-05-15T07:07:40.246Z,37.53
2019-05-15T07:08:40.335Z,38.24
2019-05-15T07:09:40.220Z,37.85
2019-05-15T07:10:40.223Z,38.99
2019-05-15T07:11:40.211Z,39.09
2019-05-15T07:12:51.554Z,38.17
2019-05-15T07:13:40.167Z,38.48
2019-05-15T07:14:40.177Z,39.80
2019-05-15T07:15:40.150Z,41.23
2019-05-15T07:16:40.132Z,40.09
2019-05-15T07:17:40.957Z,40.19
2019-05-15T07:18:40.124Z,40.11
2019-05-15T07:19:40.101Z,41.23
2019-05-15T07:20:40.567Z,40.39
2019-05-15T07:21:40.084Z,40.30
2019-05-15T07:22:40.197Z,39.90
2019-05-15T07:23:40.069Z,40.70
2019-05-15T07:24:40.086Z,40.60
2019-05-15T07:25:40.054Z,40.27
2019-05-15T07:26:40.027Z,39.87
2019-05-15T07:27:40.018Z,38.54
2019-05-15T07:28:40.012Z,38.95
2019-05-15T07:29:40.010Z,39.26
2019-05-15T07:30:41.080Z,37.92
2019-05-15T07:31:49.539Z,37.29
2019-05-15T07:32:40.050Z,37.08
2019-05-15T07:33:43.615Z,37.71
2019-05-15T07:34:39.935Z,37.29
2019-05-15T07:35:39.917Z,37.59
2019-05-15T07:36:39.913Z,37.41
2019-05-15T07:37:39.916Z,37.73
2019-05-15T07:38:39.883Z,37.85
2019-05-15T07:39:39.894Z,37.65
2019-05-15T07:40:39.878Z,37.84
2019-05-15T07:41:39.875Z,38.02
2019-05-15T07:42:39.852Z,37.95
2019-05-15T07:43:39.870Z,38.36
2019-05-15T07:44:40.268Z,37.63
2019-05-15T07:45:43.710Z,37.73
2019-05-15T07:46:39.801Z,38.04
2019-05-15T07:47:39.801Z,38.97
2019-05-15T07:48:39.794Z,38.36
2019-05-15T07:49:39.767Z,38.56
2019-05-15T07:50:39.834Z,39.69
2019-05-15T07:51:40.489Z,38.87
2019-05-15T07:52:40.591Z,37.77
2019-05-15T07:53:40.481Z,38.48
2019-05-15T07:54:39.754Z,38.46
2019-05-15T07:55:39.701Z,38.56
2019-05-15T07:56:39.755Z,38.65
2019-05-15T07:57:39.928Z,39.66
2019-05-15T07:58:39.718Z,39.97
2019-05-15T07:59:39.775Z,40.27
2019-05-15T08:00:39.737Z,38.65
2019-05-15T08:01:39.634Z,39.76
2019-05-15T08:02:53.012Z,41.31
2019-05-15T08:03:55.102Z,41.41
2019-05-15T08:04:40.601Z,41.21
2019-05-15T08:05:53.605Z,40.48
2019-05-15T08:06:40.570Z,40.17
2019-05-15T08:07:39.603Z,40.48
2019-05-15T08:08:39.629Z,40.25
2019-05-15T08:09:39.540Z,40.17
2019-05-15T08:10:39.831Z,40.68
2019-05-15T08:11:39.611Z,40.56
2019-05-15T08:12:39.512Z,40.86
2019-05-15T08:13:39.557Z,40.86
2019-05-15T08:14:39.487Z,40.66
2019-05-15T08:15:39.598Z,39.87
2019-05-15T08:16:40.020Z,40.68
2019-05-15T08:17:58.552Z,40.78
2019-05-15T08:18:40.450Z,40.66
2019-05-15T08:19:39.437Z,38.63
2019-05-15T08:20:39.421Z,38.45
2019-05-15T08:21:39.482Z,38.75
2019-05-15T08:22:39.389Z,38.73
2019-05-15T08:23:39.409Z,39.97
2019-05-15T08:24:39.669Z,39.97
2019-05-15T08:25:39.359Z,39.48
2019-05-15T08:26:44.828Z,40.09
2019-05-15T08:27:40.385Z,38.24
2019-05-15T08:28:39.320Z,37.92
2019-05-15T08:29:39.327Z,38.02
2019-05-15T08:30:39.352Z,37.51
2019-05-15T08:31:39.303Z,36.90
2019-05-15T08:32:39.328Z,37.08
2019-05-15T08:33:51.925Z,36.58
2019-05-15T08:34:39.263Z,36.60
2019-05-15T08:35:39.248Z,36.71
2019-05-15T08:36:39.233Z,36.51
2019-05-15T08:37:39.223Z,37.10
2019-05-15T08:38:39.252Z,36.58
2019-05-15T08:39:40.062Z,36.38
2019-05-15T08:40:41.030Z,37.10
2019-05-15T08:41:39.387Z,36.58
2019-05-15T08:42:42.054Z,36.87
2019-05-15T08:43:39.243Z,37.08
2019-05-15T08:44:39.159Z,37.21
2019-05-15T08:45:39.312Z,37.23
2019-05-15T08:46:39.143Z,37.04
2019-05-15T08:47:39.215Z,37.73
2019-05-15T08:48:39.123Z,37.30
2019-05-15T08:49:41.014Z,37.02
2019-05-15T08:50:39.180Z,37.61
2019-05-15T08:51:39.254Z,37.10
2019-05-15T08:52:39.502Z,37.23
2019-05-15T08:53:39.078Z,37.82
2019-05-15T08:54:39.037Z,36.47
2019-05-15T08:55:39.258Z,36.60
2019-05-15T08:56:39.505Z,36.78
2019-05-15T08:57:39.071Z,37.07
2019-05-15T08:58:38.988Z,36.34
2019-05-15T08:59:38.999Z,36.88
2019-05-15T09:00:40.211Z,38.12
2019-05-15T09:01:38.983Z,37.39
2019-05-15T09:02:38.961Z,37.82
2019-05-15T09:03:38.930Z,37.82
2019-05-15T09:04:51.622Z,38.12
2019-05-15T09:05:39.015Z,37.32
2019-05-15T09:06:41.311Z,38.24
2019-05-15T09:07:38.888Z,37.23
2019-05-15T09:08:39.372Z,37.53
2019-05-15T09:09:38.877Z,38.45
2019-05-15T09:10:39.063Z,37.43
2019-05-15T09:11:39.435Z,36.92
2019-05-15T09:12:39.127Z,36.69
2019-05-15T09:13:43.280Z,36.88
2019-05-15T09:14:40.127Z,37.00
2019-05-15T09:15:39.690Z,36.90
2019-05-15T09:16:38.960Z,36.41
2019-05-15T09:17:39.814Z,37.32
2019-05-15T09:18:39.294Z,37.71
2019-05-15T09:19:38.921Z,36.90
2019-05-15T09:20:38.738Z,36.60
2019-05-15T09:21:39.006Z,36.47
2019-05-15T09:22:38.856Z,36.99
2019-05-15T09:23:39.105Z,36.17
2019-05-15T09:24:38.733Z,36.88
2019-05-15T09:25:39.578Z,36.56
2019-05-15T09:26:40.362Z,36.97
2019-05-15T09:27:38.670Z,37.37
2019-05-15T09:28:39.291Z,36.25
2019-05-15T09:29:38.652Z,36.66
2019-05-15T09:30:39.063Z,37.27
2019-05-15T09:31:39.161Z,36.63
2019-05-15T09:32:39.415Z,37.26
2019-05-15T09:33:38.926Z,36.75
2019-05-15T09:34:50.737Z,36.85
2019-05-15T09:35:51.126Z,36.75
2019-05-15T09:36:42.217Z,36.93
2019-05-15T09:37:39.654Z,37.13
2019-05-15T09:38:39.059Z,36.83
2019-05-15T09:39:38.639Z,37.13
2019-05-15T09:40:45.999Z,37.13
2019-05-15T09:41:39.529Z,37.13
2019-05-15T09:42:39.006Z,36.87
2019-05-15T09:43:41.805Z,37.98
2019-05-15T09:44:39.185Z,37.76
2019-05-15T09:45:38.502Z,37.76
2019-05-15T09:46:38.501Z,37.48
2019-05-15T09:47:39.707Z,37.78
2019-05-15T09:48:39.037Z,37.29
2019-05-15T09:49:39.162Z,38.22
2019-05-15T09:50:39.653Z,37.93
2019-05-15T09:51:38.653Z,37.92
2019-05-15T09:52:38.979Z,38.22
2019-05-15T09:53:39.389Z,38.12
2019-05-15T09:54:38.852Z,38.02
2019-05-15T09:55:38.551Z,38.02
2019-05-15T09:56:38.645Z,38.34
2019-05-15T09:57:38.743Z,38.93
2019-05-15T09:58:38.408Z,38.31
2019-05-15T09:59:39.044Z,37.80
2019-05-15T10:00:38.688Z,37.05
2019-05-15T10:01:39.429Z,36.34
2019-05-15T10:02:39.362Z,35.53
2019-05-15T10:03:39.148Z,36.46
2019-05-15T10:04:39.051Z,36.36
2019-05-15T10:05:38.893Z,36.68
2019-05-15T10:06:58.213Z,36.47
2019-05-15T10:07:40.450Z,36.99
2019-05-15T10:08:39.815Z,36.97
2019-05-15T10:09:38.863Z,36.65
2019-05-15T10:10:38.283Z,36.00
2019-05-15T10:11:38.401Z,35.92
2019-05-15T10:12:38.815Z,35.09
2019-05-15T10:13:59.649Z,35.29
2019-05-15T10:14:38.717Z,35.07
2019-05-15T10:15:39.014Z,35.09
2019-05-15T10:16:38.160Z,34.91
2019-05-15T10:17:38.691Z,35.19
2019-05-15T10:18:39.219Z,35.12
2019-05-15T10:19:38.072Z,35.53
2019-05-15T10:20:38.076Z,36.02
2019-05-15T10:21:39.962Z,34.91
2019-05-15T10:22:38.096Z,35.21
2019-05-15T10:23:40.487Z,34.82
2019-05-15T10:24:38.019Z,35.31
2019-05-15T10:25:38.929Z,35.31
2019-05-15T10:26:39.330Z,35.17
2019-05-15T10:27:39.859Z,35.07
2019-05-15T10:28:39.159Z,34.06
2019-05-15T10:29:38.778Z,34.09
2019-05-15T10:30:39.482Z,34.61
2019-05-15T10:31:38.898Z,34.60
2019-05-15T10:32:39.459Z,35.21
2019-05-15T10:33:39.271Z,34.80
2019-05-15T10:34:38.455Z,34.80
2019-05-15T10:35:39.286Z,34.80
2019-05-15T10:36:38.672Z,35.00
2019-05-15T10:37:50.770Z,34.08
2019-05-15T10:38:39.186Z,34.30
2019-05-15T10:39:38.516Z,35.21
2019-05-15T10:40:41.076Z,34.92
2019-05-15T10:41:38.985Z,35.12
2019-05-15T10:42:39.729Z,35.34
2019-05-15T10:43:44.715Z,35.44
2019-05-15T10:44:39.304Z,35.12
2019-05-15T10:45:42.381Z,35.63
2019-05-15T10:46:38.772Z,35.41
2019-05-15T10:47:38.841Z,35.00
2019-05-15T10:48:38.552Z,35.00
2019-05-15T10:49:38.992Z,35.11
2019-05-15T10:50:38.864Z,35.11
2019-05-15T10:51:39.550Z,35.12
2019-05-15T10:52:38.206Z,34.61
2019-05-15T10:53:39.106Z,35.31
2019-05-15T10:54:38.205Z,34.60
2019-05-15T10:55:39.489Z,34.39
2019-05-15T10:56:38.554Z,35.09
2019-05-15T10:57:42.606Z,35.00
2019-05-15T10:58:39.377Z,35.83
2019-05-15T10:59:37.624Z,35.11
2019-05-15T11:00:37.617Z,34.91
2019-05-15T11:01:38.679Z,35.09
2019-05-15T11:02:39.364Z,35.07
2019-05-15T11:03:39.947Z,34.55
2019-05-15T11:04:39.238Z,32.32
2019-05-15T11:05:45.155Z,33.44
2019-05-15T11:06:38.683Z,33.13
2019-05-15T11:07:39.362Z,33.23
2019-05-15T11:08:51.581Z,33.23
2019-05-15T11:09:40.403Z,33.37
2019-05-15T11:10:38.618Z,33.25
2019-05-15T11:11:37.506Z,32.73
2019-05-15T11:12:37.546Z,32.10
2019-05-15T11:13:38.185Z,32.09
2019-05-15T11:14:37.987Z,32.39
2019-05-15T11:15:40.440Z,32.91
2019-05-15T11:16:39.096Z,32.12
2019-05-15T11:17:38.534Z,33.44
2019-05-15T11:18:39.323Z,33.86
2019-05-15T11:19:40.663Z,35.09
2019-05-15T11:20:40.976Z,34.99
2019-05-15T11:21:37.377Z,34.91
2019-05-15T11:22:39.086Z,35.21
2019-05-15T11:23:39.389Z,35.48
2019-05-15T11:24:38.526Z,34.05
2019-05-15T11:25:38.197Z,33.96
2019-05-15T11:26:39.079Z,33.75
2019-05-15T11:27:39.013Z,33.86
2019-05-15T11:28:39.161Z,34.06
2019-05-15T11:29:38.198Z,33.45
2019-05-15T11:30:39.297Z,34.67
2019-05-15T11:31:39.257Z,33.75
2019-05-15T11:32:39.137Z,33.87
2019-05-15T11:33:38.465Z,34.87
2019-05-15T11:34:38.284Z,33.86
2019-05-15T11:35:40.762Z,33.57
2019-05-15T11:36:38.767Z,33.86
2019-05-15T11:37:43.940Z,34.25
2019-05-15T11:38:38.401Z,33.13
2019-05-15T11:39:50.722Z,33.22
2019-05-15T11:40:38.946Z,33.62
2019-05-15T11:41:38.644Z,33.01
2019-05-15T11:42:39.385Z,33.10
2019-05-15T11:43:38.520Z,33.40
2019-05-15T11:44:38.886Z,33.18
2019-05-15T11:45:38.925Z,34.11
2019-05-15T11:46:39.173Z,34.33
2019-05-15T11:47:39.699Z,33.32
2019-05-15T11:48:39.220Z,33.01
2019-05-15T11:49:38.380Z,33.01
2019-05-15T11:50:39.895Z,33.32
2019-05-15T11:51:38.407Z,33.03
2019-05-15T11:52:40.137Z,33.75
2019-05-15T11:53:39.503Z,33.45
2019-05-15T11:54:38.523Z,33.67
2019-05-15T11:55:38.652Z,34.26
2019-05-15T11:56:39.174Z,34.77
2019-05-15T11:57:43.589Z,34.78
2019-05-15T11:58:38.965Z,35.21
2019-05-15T11:59:43.599Z,35.51
2019-05-15T12:00:38.519Z,36.75
2019-05-15T12:01:38.290Z,36.54
2019-05-15T12:02:38.346Z,36.24
2019-05-15T12:03:38.496Z,37.15
2019-05-15T12:04:38.342Z,37.05
2019-05-15T12:05:38.497Z,36.85
2019-05-15T12:06:38.534Z,36.65
2019-05-15T12:07:38.192Z,36.97
2019-05-15T12:08:38.572Z,36.87
2019-05-15T12:09:38.769Z,36.34
2019-05-15T12:10:49.371Z,36.34
2019-05-15T12:11:40.489Z,35.22
2019-05-15T12:12:38.502Z,36.36
2019-05-15T12:13:38.157Z,36.54
2019-05-15T12:14:38.891Z,36.63
2019-05-15T12:15:38.878Z,36.14
2019-05-15T12:16:39.847Z,36.56
2019-05-15T12:17:39.152Z,37.37
2019-05-15T12:18:38.884Z,37.37
2019-05-15T12:19:38.995Z,37.58
2019-05-15T12:20:38.929Z,37.68
2019-05-15T12:21:39.388Z,37.66
2019-05-15T12:22:38.948Z,37.46
2019-05-15T12:23:38.723Z,36.95
2019-05-15T12:24:40.259Z,36.54
2019-05-15T12:25:39.021Z,36.34
2019-05-15T12:26:39.273Z,36.44
2019-05-15T12:27:39.516Z,36.66
2019-05-15T12:28:40.574Z,36.87
2019-05-15T12:29:39.521Z,37.68
2019-05-15T12:30:39.945Z,37.68
2019-05-15T12:31:45.125Z,37.96
2019-05-15T12:32:39.452Z,36.76
2019-05-15T12:33:38.442Z,37.98
2019-05-15T12:34:38.883Z,38.37
2019-05-15T12:35:39.770Z,37.76
2019-05-15T12:36:57.702Z,37.56
2019-05-15T12:37:40.144Z,37.74
2019-05-15T12:38:39.515Z,37.13
2019-05-15T12:39:40.646Z,37.34
2019-05-15T13:00:38.255Z,37.13
2019-05-15T13:01:38.475Z,36.63
2019-05-15T13:02:49.273Z,37.66
2019-05-15T13:03:38.314Z,36.65
2019-05-15T13:04:36.221Z,36.95
2019-05-15T13:05:38.930Z,37.35
2019-05-15T13:06:47.808Z,37.46
2019-05-15T13:07:37.960Z,37.35
2019-05-15T13:08:38.509Z,37.15
2019-05-15T13:09:38.033Z,37.66
2019-05-15T13:10:38.574Z,38.07
2019-05-15T13:11:37.824Z,37.46
2019-05-15T13:12:38.804Z,37.76
2019-05-15T13:13:37.714Z,37.26
2019-05-15T13:14:38.730Z,36.75